Time;durP1;ratioP1;P1;durP2;ratioP2;P2;SDS_P1;SDS_P2;PMS_P1;PMS_P2;Temp;Humidity;BMP_temperature;BMP_pressure;BME280_temperature;BME280_humidity;BME280_pressure;Samples;Min_cycle;Max_cycle;Signal;HPM_P1;HPM_P2
2021/08/18 00:00:42;;;;;;;;;;;;;;;19.86;50.87;100854.16;4985675;28;100674;-84
2021/08/18 00:03:08;;;;;;;;;;;;;;;19.93;50.49;100852.72;4982760;28;96934;-82
2021/08/18 00:05:35;;;;;;;;;;;;;;;20.23;49.66;100858.53;4996847;28;96917;-83
2021/08/18 00:08:02;;;;;;;;;;;;;;;20.05;50.01;100865.25;5008095;28;97032;-83
2021/08/18 00:10:30;;;;;;;;;;;;;;;19.61;51.35;100862.25;5006552;28;100359;-82
2021/08/18 00:12:57;;;;;;;;;;;;;;;19.47;51.41;100861.38;4982003;28;96699;-82
2021/08/18 00:15:23;;;;;;;;;;;;;;;19.76;51.23;100863.81;4990103;28;96825;-83
2021/08/18 00:17:50;;;;;;;;;;;;;;;20.05;50.09;100867.94;4983100;28;99123;-82
2021/08/18 00:20:17;;;;;;;;;;;;;;;19.77;50.62;100874.41;4981878;28;99489;-82
2021/08/18 00:22:43;;;;;;;;;;;;;;;19.54;51.65;100869.00;4980657;28;97180;-81
2021/08/18 00:25:10;;;;;;;;;;;;;;;19.92;50.54;100864.44;4998007;28;96779;-82
2021/08/18 00:27:37;;;;;;;;;;;;;;;19.67;50.97;100869.84;5000561;28;99422;-81
2021/08/18 00:30:04;;;;;;;;;;;;;;;19.80;50.91;100874.22;4998921;28;98395;-83
2021/08/18 00:32:30;;;;;;;;;;;;;;;19.85;50.23;100872.06;5001885;28;96781;-82
2021/08/18 00:34:57;;;;;;;;;;;;;;;19.56;51.02;100872.44;5002313;28;96735;-81
2021/08/18 00:37:23;;;;;;;;;;;;;;;19.75;50.74;100873.69;5002697;28;99480;-82
2021/08/18 00:39:49;;;;;;;;;;;;;;;19.70;51.23;100880.31;5002674;28;101515;-82
2021/08/18 00:42:16;;;;;;;;;;;;;;;19.45;51.82;100871.31;5011631;28;96598;-83
2021/08/18 00:44:46;;;;;;;;;;;;;;;19.55;51.21;100873.41;5020780;28;96483;-84
2021/08/18 00:47:13;;;;;;;;;;;;;;;19.85;50.71;100876.56;5002145;28;98263;-83
2021/08/18 00:49:39;;;;;;;;;;;;;;;19.91;50.43;100876.13;5007255;28;97343;-81
2021/08/18 00:52:06;;;;;;;;;;;;;;;19.67;50.87;100872.53;4996998;28;96705;-82
2021/08/18 00:54:32;;;;;;;;;;;;;;;19.67;51.05;100872.53;5011294;28;96709;-81
2021/08/18 00:57:01;;;;;;;;;;;;;;;19.83;50.69;100870.44;5012692;28;101906;-81
2021/08/18 00:59:28;;;;;;;;;;;;;;;19.56;51.40;100865.22;5013319;28;98440;-80
2021/08/18 01:01:56;;;;;;;;;;;;;;;19.28;51.99;100868.13;4989173;28;96819;-81
2021/08/18 01:04:23;;;;;;;;;;;;;;;19.27;52.23;100877.97;4996471;28;96751;-83
2021/08/18 01:06:49;;;;;;;;;;;;;;;19.42;51.82;100868.88;4994087;28;97694;-82
2021/08/18 01:09:20;;;;;;;;;;;;;;;19.15;52.87;100867.25;5004477;28;98768;-83
2021/08/18 01:11:48;;;;;;;;;;;;;;;18.61;54.01;100870.91;4980149;28;96662;-83
2021/08/18 01:14:15;;;;;;;;;;;;;;;18.98;53.32;100871.06;4992690;28;96878;-82
2021/08/18 01:16:45;;;;;;;;;;;;;;;19.43;51.98;100873.25;4998628;28;100605;-82
2021/08/18 01:19:13;;;;;;;;;;;;;;;18.53;54.22;100873.19;5000102;28;102164;-82
2021/08/18 01:21:40;;;;;;;;;;;;;;;19.30;52.36;100872.38;4998714;28;96867;-82
2021/08/18 01:24:06;;;;;;;;;;;;;;;19.11;52.54;100869.25;5001536;28;96916;-83
2021/08/18 01:26:33;;;;;;;;;;;;;;;19.27;52.35;100864.56;4990588;28;97879;-82
2021/08/18 01:29:02;;;;;;;;;;;;;;;19.30;52.49;100874.19;4991447;28;98013;-83
2021/08/18 01:31:28;;;;;;;;;;;;;;;19.68;51.63;100869.75;4990346;28;98103;-81
2021/08/18 01:33:55;;;;;;;;;;;;;;;19.60;51.78;100872.09;4998246;28;96639;-83
2021/08/18 01:36:21;;;;;;;;;;;;;;;19.13;52.57;100867.34;5002736;28;97884;-82
2021/08/18 01:38:48;;;;;;;;;;;;;;;19.78;51.16;100865.41;5004089;28;97665;-82
2021/08/18 01:41:14;;;;;;;;;;;;;;;19.92;50.83;100859.06;4991270;28;97042;-81
2021/08/18 01:43:41;;;;;;;;;;;;;;;19.59;50.99;100864.16;4988040;28;98671;-82
2021/08/18 01:46:10;;;;;;;;;;;;;;;19.60;51.23;100866.75;4995548;28;99240;-82
2021/08/18 01:48:37;;;;;;;;;;;;;;;19.77;50.87;100862.84;4996086;28;99672;-82
2021/08/18 01:51:06;;;;;;;;;;;;;;;19.89;50.35;100854.75;4989337;28;97537;-81
2021/08/18 01:53:33;;;;;;;;;;;;;;;19.97;50.01;100853.34;4984990;28;96878;-82
2021/08/18 01:56:01;;;;;;;;;;;;;;;19.95;50.21;100858.84;4993179;28;99020;-82
2021/08/18 01:58:27;;;;;;;;;;;;;;;19.81;50.98;100848.25;4983938;28;98313;-80
2021/08/18 02:00:54;;;;;;;;;;;;;;;19.78;50.91;100851.16;4998735;28;97337;-82
2021/08/18 02:03:22;;;;;;;;;;;;;;;19.76;50.90;100855.75;4999395;28;96993;-81
2021/08/18 02:05:48;;;;;;;;;;;;;;;19.67;50.63;100845.72;4991679;28;98606;-81
2021/08/18 02:08:15;;;;;;;;;;;;;;;19.46;51.41;100842.72;4996923;28;99933;-83
2021/08/18 02:10:41;;;;;;;;;;;;;;;19.64;50.82;100845.91;4994222;28;97018;-83
2021/08/18 02:13:10;;;;;;;;;;;;;;;19.43;51.34;100848.25;4984396;28;96860;-82
2021/08/18 02:15:36;;;;;;;;;;;;;;;19.37;51.74;100846.03;5002111;28;97798;-82
2021/08/18 02:18:03;;;;;;;;;;;;;;;18.61;53.94;100848.63;4994573;28;98064;-81
2021/08/18 02:20:32;;;;;;;;;;;;;;;19.12;52.47;100841.53;4986660;28;96825;-83
2021/08/18 02:22:59;;;;;;;;;;;;;;;19.26;51.90;100845.91;4999317;28;97378;-81
2021/08/18 02:25:25;;;;;;;;;;;;;;;18.92;53.05;100845.56;4992295;28;98901;-82
2021/08/18 02:27:52;;;;;;;;;;;;;;;19.37;51.68;100848.69;5017403;28;98784;-83
2021/08/18 02:30:21;;;;;;;;;;;;;;;19.27;51.59;100843.16;4987962;28;99200;-81
2021/08/18 02:32:47;;;;;;;;;;;;;;;19.40;51.59;100853.84;4999239;28;97307;-81
2021/08/18 02:35:14;;;;;;;;;;;;;;;19.61;51.24;100846.16;4988064;28;98025;-83
2021/08/18 02:37:42;;;;;;;;;;;;;;;19.56;50.91;100854.50;4994889;28;98906;-83
2021/08/18 02:40:09;;;;;;;;;;;;;;;19.16;51.86;100843.03;5001100;28;96891;-83
2021/08/18 02:42:37;;;;;;;;;;;;;;;19.21;51.93;100843.56;5002886;28;96929;-81
2021/08/18 02:45:04;;;;;;;;;;;;;;;19.52;51.35;100838.75;5001993;28;96912;-80
2021/08/18 02:47:30;;;;;;;;;;;;;;;19.59;51.35;100837.34;4994297;28;98748;-83
2021/08/18 02:49:56;;;;;;;;;;;;;;;19.30;51.66;100842.06;4996643;28;97147;-82
2021/08/18 02:52:23;;;;;;;;;;;;;;;19.70;50.88;100840.13;4979237;28;96869;-81
2021/08/18 02:54:51;;;;;;;;;;;;;;;19.85;50.24;100839.88;4988309;28;97828;-83
2021/08/18 02:57:17;;;;;;;;;;;;;;;19.66;50.77;100838.63;4978192;28;99164;-81
2021/08/18 02:59:44;;;;;;;;;;;;;;;19.70;50.85;100842.78;4994760;28;96983;-80
2021/08/18 03:02:10;;;;;;;;;;;;;;;19.83;50.24;100835.59;4997768;28;97008;-81
2021/08/18 03:04:36;;;;;;;;;;;;;;;18.90;52.67;100838.63;4998059;28;97843;-82
2021/08/18 03:07:03;;;;;;;;;;;;;;;19.22;52.06;100831.91;4995456;28;98730;-81
2021/08/18 03:09:29;;;;;;;;;;;;;;;19.35;51.80;100835.44;4997741;28;96833;-81
2021/08/18 03:11:57;;;;;;;;;;;;;;;19.47;51.52;100839.94;4982060;28;96831;-80
2021/08/18 03:14:25;;;;;;;;;;;;;;;19.74;51.13;100825.53;4991013;28;100952;-82
2021/08/18 03:16:51;;;;;;;;;;;;;;;19.60;51.48;100833.72;4982243;28;99609;-83
2021/08/18 03:19:19;;;;;;;;;;;;;;;19.44;51.35;100840.13;4991533;28;98481;-83
2021/08/18 03:21:46;;;;;;;;;;;;;;;19.85;50.59;100833.66;4982638;28;96843;-83
2021/08/18 03:24:12;;;;;;;;;;;;;;;19.80;50.70;100841.19;4992616;28;98870;-83
2021/08/18 03:26:39;;;;;;;;;;;;;;;19.86;50.53;100846.09;4989079;28;100557;-83
2021/08/18 03:29:07;;;;;;;;;;;;;;;19.94;50.45;100849.09;4991571;28;97041;-82
2021/08/18 03:31:34;;;;;;;;;;;;;;;19.42;51.95;100839.41;4985433;28;96842;-83
2021/08/18 03:34:00;;;;;;;;;;;;;;;19.60;51.53;100845.28;4987354;28;98311;-83
2021/08/18 03:36:27;;;;;;;;;;;;;;;19.82;51.09;100842.75;4998857;28;99229;-83
2021/08/18 03:38:54;;;;;;;;;;;;;;;19.47;51.92;100845.31;5000634;28;96590;-83
2021/08/18 03:41:20;;;;;;;;;;;;;;;19.07;52.83;100841.84;5005807;28;97312;-82
2021/08/18 03:43:47;;;;;;;;;;;;;;;19.23;52.29;100840.78;5001463;28;100283;-82
2021/08/18 03:46:14;;;;;;;;;;;;;;;19.38;52.15;100847.72;4998198;28;98869;-81
2021/08/18 03:48:41;;;;;;;;;;;;;;;19.10;52.88;100848.78;4996361;28;96882;-82
2021/08/18 03:51:07;;;;;;;;;;;;;;;19.03;53.44;100853.72;5006247;28;97170;-83
2021/08/18 03:53:34;;;;;;;;;;;;;;;19.41;52.45;100851.06;5006299;28;97919;-85
2021/08/18 03:56:00;;;;;;;;;;;;;;;19.14;53.07;100852.13;5006892;28;96858;-82
2021/08/18 03:58:27;;;;;;;;;;;;;;;19.52;52.04;100849.47;4991464;28;96790;-83
2021/08/18 04:00:53;;;;;;;;;;;;;;;19.37;52.12;100848.69;5003336;28;96742;-83
2021/08/18 04:03:21;;;;;;;;;;;;;;;19.44;51.81;100845.47;4997374;28;99084;-82
2021/08/18 04:05:47;;;;;;;;;;;;;;;19.52;52.01;100846.78;4984447;28;98923;-83
2021/08/18 04:08:14;;;;;;;;;;;;;;;19.38;52.39;100840.56;5004503;28;96918;-84
2021/08/18 04:10:41;;;;;;;;;;;;;;;19.54;52.12;100844.88;5021799;28;96897;-82
2021/08/18 04:13:07;;;;;;;;;;;;;;;18.95;53.63;100847.19;5003590;28;99295;-83
2021/08/18 04:15:36;;;;;;;;;;;;;;;19.24;52.89;100853.19;5002028;28;99497;-83
2021/08/18 04:18:02;;;;;;;;;;;;;;;18.49;54.77;100852.09;5003008;28;96889;-83
2021/08/18 04:20:30;;;;;;;;;;;;;;;19.34;52.83;100844.44;5008647;28;96851;-83
2021/08/18 04:22:57;;;;;;;;;;;;;;;19.01;53.66;100844.09;5018842;28;97818;-82
2021/08/18 04:25:24;;;;;;;;;;;;;;;19.49;52.41;100851.41;5020449;28;97675;-83
2021/08/18 04:27:51;;;;;;;;;;;;;;;19.56;52.43;100854.50;5010301;28;96958;-83
2021/08/18 04:30:17;;;;;;;;;;;;;;;19.71;51.69;100855.25;5023780;28;96532;-83
2021/08/18 04:32:44;;;;;;;;;;;;;;;19.56;52.17;100859.03;5009860;28;97643;-81
2021/08/18 04:35:13;;;;;;;;;;;;;;;19.74;51.29;100860.41;5023946;28;100372;-82
2021/08/18 04:37:41;;;;;;;;;;;;;;;19.72;51.58;100848.91;5023848;28;96612;-83
2021/08/18 04:40:09;;;;;;;;;;;;;;;19.85;50.98;100855.09;5035172;28;96429;-80
2021/08/18 04:42:37;;;;;;;;;;;;;;;19.95;50.50;100860.69;5006679;28;98223;-81
2021/08/18 04:45:06;;;;;;;;;;;;;;;19.77;51.06;100862.84;5023847;28;98034;-81
2021/08/18 04:47:33;;;;;;;;;;;;;;;19.89;50.67;100870.84;5004784;28;96486;-83
2021/08/18 04:49:59;;;;;;;;;;;;;;;19.63;51.30;100869.19;5023469;28;96076;-80
2021/08/18 04:52:26;;;;;;;;;;;;;;;19.31;52.00;100871.41;5023855;28;99717;-80
2021/08/18 04:54:54;;;;;;;;;;;;;;;19.56;51.56;100873.25;5032872;28;98766;-83
2021/08/18 04:57:21;;;;;;;;;;;;;;;19.50;51.86;100871.00;5027211;28;96379;-82
2021/08/18 04:59:47;;;;;;;;;;;;;;;19.85;50.73;100864.00;5011127;28;96832;-84
2021/08/18 05:02:13;;;;;;;;;;;;;;;19.86;50.51;100871.09;5008261;28;101647;-82
2021/08/18 05:04:40;;;;;;;;;;;;;;;19.67;50.89;100881.41;5008994;28;97934;-83
2021/08/18 05:07:09;;;;;;;;;;;;;;;19.69;50.75;100884.00;5006579;28;96671;-83
2021/08/18 05:09:37;;;;;;;;;;;;;;;19.52;51.26;100882.50;5005999;28;96848;-83
2021/08/18 05:12:09;;;;;;;;;;;;;;;19.50;51.25;100882.59;4994192;28;98956;-82
2021/08/18 05:14:36;;;;;;;;;;;;;;;19.83;50.43;100887.38;4999731;28;98980;-82
2021/08/18 05:17:03;;;;;;;;;;;;;;;19.74;50.66;100896.09;4995614;28;96693;-82
2021/08/18 05:19:29;;;;;;;;;;;;;;;20.07;49.93;100900.88;5006295;28;96809;-82
2021/08/18 05:21:59;;;;;;;;;;;;;;;20.23;49.25;100893.41;5011098;28;98048;-82
2021/08/18 05:24:25;;;;;;;;;;;;;;;20.42;48.84;100892.06;5021244;28;97504;-82
2021/08/18 05:26:51;;;;;;;;;;;;;;;20.20;49.34;100899.00;5018113;28;96696;-82
2021/08/18 05:29:21;;;;;;;;;;;;;;;20.23;49.47;100895.22;5014906;28;96621;-84
2021/08/18 05:31:47;;;;;;;;;;;;;;;20.10;49.80;100897.09;5010684;28;99211;-85
2021/08/18 05:34:14;;;;;;;;;;;;;;;19.94;50.28;100902.72;5021949;28;98009;-85
2021/08/18 05:36:40;;;;;;;;;;;;;;;20.25;49.51;100902.22;5013988;28;97223;-86
2021/08/18 05:39:08;;;;;;;;;;;;;;;20.39;48.91;100901.22;5014679;28;96627;-85
2021/08/18 05:41:35;;;;;;;;;;;;;;;20.37;48.91;100894.25;5000949;28;101295;-84
2021/08/18 05:44:02;;;;;;;;;;;;;;;20.59;48.74;100899.75;4999940;28;96821;-84
2021/08/18 05:46:30;;;;;;;;;;;;;;;20.70;48.37;100907.84;5026274;28;96774;-81
2021/08/18 05:48:56;;;;;;;;;;;;;;;20.56;48.56;100908.03;4992309;28;96825;-82
2021/08/18 05:51:23;;;;;;;;;;;;;;;20.46;49.20;100904.31;5003822;28;100561;-86
2021/08/18 05:53:50;;;;;;;;;;;;;;;20.49;48.79;100904.06;4997579;28;99268;-82
2021/08/18 05:56:16;;;;;;;;;;;;;;;20.47;48.88;100900.66;4994724;28;97335;-82
2021/08/18 05:58:45;;;;;;;;;;;;;;;20.13;49.86;100900.44;5001867;28;97050;-82
2021/08/18 06:01:11;;;;;;;;;;;;;;;20.30;49.61;100902.72;4998525;28;98169;-82
2021/08/18 06:03:39;;;;;;;;;;;;;;;20.68;48.98;100904.41;5002595;28;98189;-82
2021/08/18 06:06:05;;;;;;;;;;;;;;;20.60;48.74;100893.41;5002770;28;96906;-84
2021/08/18 06:08:32;;;;;;;;;;;;;;;20.71;48.55;100906.03;4997481;28;96929;-82
2021/08/18 06:10:58;;;;;;;;;;;;;;;20.24;49.55;100903.16;4993175;28;98234;-81
2021/08/18 06:13:25;;;;;;;;;;;;;;;20.77;48.35;100898.38;5001536;28;100149;-84
2021/08/18 06:15:52;;;;;;;;;;;;;;;21.01;47.97;100906.38;5003384;28;96722;-83
2021/08/18 06:18:19;;;;;;;;;;;;;;;20.86;48.24;100899.50;5002528;28;96875;-82
2021/08/18 06:20:47;;;;;;;;;;;;;;;21.30;47.30;100902.34;5002097;28;96969;-82
2021/08/18 06:23:16;;;;;;;;;;;;;;;21.53;46.76;100907.78;4996395;28;99513;-83
2021/08/18 06:25:44;;;;;;;;;;;;;;;21.23;47.17;100900.25;4997636;28;96962;-83
2021/08/18 06:28:15;;;;;;;;;;;;;;;22.01;45.54;100898.50;5005131;28;96778;-82
2021/08/18 06:30:41;;;;;;;;;;;;;;;21.72;45.76;100903.50;5008249;28;96799;-82
2021/08/18 06:33:08;;;;;;;;;;;;;;;21.68;46.12;100903.84;5006240;28;96681;-82
2021/08/18 06:35:35;;;;;;;;;;;;;;;21.32;47.27;100903.09;4999940;28;96944;-82
2021/08/18 06:38:03;;;;;;;;;;;;;;;20.55;48.26;100892.88;5001988;28;97480;-81
2021/08/18 06:40:30;;;;;;;;;;;;;;;20.38;48.99;100898.66;5000161;28;100624;-82
2021/08/18 06:42:57;;;;;;;;;;;;;;;20.95;47.80;100896.09;5004920;28;98636;-82
2021/08/18 06:45:24;;;;;;;;;;;;;;;21.41;46.60;100906.88;5006615;28;97980;-84
2021/08/18 06:47:51;;;;;;;;;;;;;;;21.81;45.30;100892.00;4998768;28;96931;-82
2021/08/18 06:50:17;;;;;;;;;;;;;;;21.79;45.25;100888.56;4993630;28;97630;-82
2021/08/18 06:52:44;;;;;;;;;;;;;;;21.81;44.96;100885.75;4999312;28;100823;-80
2021/08/18 06:55:13;;;;;;;;;;;;;;;21.90;44.33;100890.41;4999546;28;96981;-81
2021/08/18 06:57:39;;;;;;;;;;;;;;;22.20;43.64;100881.72;4998897;28;96920;-81
2021/08/18 07:00:07;;;;;;;;;;;;;;;21.62;44.78;100886.38;5000540;28;98383;-81
2021/08/18 07:02:33;;;;;;;;;;;;;;;21.89;44.11;100886.00;5009499;28;98157;-80
2021/08/18 07:05:06;;;;;;;;;;;;;;;21.25;45.40;100891.09;4998835;28;96749;-82
2021/08/18 07:07:32;;;;;;;;;;;;;;;20.92;45.24;100883.78;4997905;28;96736;-81
2021/08/18 07:09:59;;;;;;;;;;;;;;;21.37;44.58;100889.28;4998469;28;97787;-80
2021/08/18 07:12:32;;;;;;;;;;;;;;;22.07;43.35;100883.69;5008127;28;98423;-81
2021/08/18 07:14:59;;;;;;;;;;;;;;;21.25;44.71;100876.81;5007161;28;96639;-82
2021/08/18 07:17:29;;;;;;;;;;;;;;;21.66;44.17;100873.56;5023944;28;97409;-82
2021/08/18 07:19:55;;;;;;;;;;;;;;;22.41;42.41;100879.09;5009245;28;99263;-82
2021/08/18 07:22:22;;;;;;;;;;;;;;;22.66;41.63;100873.38;5011141;28;98870;-81
2021/08/18 07:24:48;;;;;;;;;;;;;;;22.85;41.50;100883.47;5005300;28;96607;-82
2021/08/18 07:27:14;;;;;;;;;;;;;;;22.05;43.27;100882.97;5019332;28;96907;-82
2021/08/18 07:29:42;;;;;;;;;;;;;;;22.90;41.74;100886.66;5017823;28;96594;-81
2021/08/18 07:32:09;;;;;;;;;;;;;;;22.82;41.96;100889.16;5026809;28;98060;-82
2021/08/18 07:34:36;;;;;;;;;;;;;;;23.16;41.09;100885.28;5021138;28;96662;-82
2021/08/18 07:37:02;;;;;;;;;;;;;;;22.71;41.74;100889.16;5022172;28;96770;-82
2021/08/18 07:39:35;;;;;;;;;;;;;;;21.98;43.59;100893.38;5018726;28;96984;-81
2021/08/18 07:42:02;;;;;;;;;;;;;;;21.69;44.31;100897.50;5014222;28;100437;-83
2021/08/18 07:44:28;;;;;;;;;;;;;;;21.49;44.65;100899.06;5021750;28;96626;-82
2021/08/18 07:46:56;;;;;;;;;;;;;;;21.35;45.03;100901.97;5006921;28;96993;-81
2021/08/18 07:49:22;;;;;;;;;;;;;;;21.34;45.21;100900.25;5015540;28;101506;-82
2021/08/18 07:51:49;;;;;;;;;;;;;;;21.85;44.04;100900.69;5016830;28;99390;-82
2021/08/18 07:54:16;;;;;;;;;;;;;;;21.13;44.91;100896.53;5015063;28;96810;-83
2021/08/18 07:56:42;;;;;;;;;;;;;;;21.36;44.61;100901.88;5014494;28;96684;-81
2021/08/18 07:59:08;;;;;;;;;;;;;;;21.64;44.21;100895.19;5012347;28;99883;-82
2021/08/18 08:01:35;;;;;;;;;;;;;;;21.78;43.76;100891.41;5006740;28;99988;-81
2021/08/18 08:04:03;;;;;;;;;;;;;;;21.05;45.62;100886.38;5004349;28;98749;-81
2021/08/18 08:06:29;;;;;;;;;;;;;;;21.67;44.40;100888.69;5005210;28;96966;-81
2021/08/18 08:08:56;;;;;;;;;;;;;;;21.67;44.28;100889.53;5013429;27;98369;-81
2021/08/18 08:11:22;;;;;;;;;;;;;;;21.77;44.16;100882.47;5003741;28;97967;-80
2021/08/18 08:13:48;;;;;;;;;;;;;;;21.68;44.46;100879.66;5011530;28;96823;-80
2021/08/18 08:16:15;;;;;;;;;;;;;;;20.88;45.95;100890.34;5009257;28;97561;-82
2021/08/18 08:18:41;;;;;;;;;;;;;;;21.71;44.58;100880.28;5006411;28;97683;-80
2021/08/18 08:21:09;;;;;;;;;;;;;;;22.89;41.86;100876.88;5007298;28;99893;-81
2021/08/18 08:23:36;;;;;;;;;;;;;;;23.53;40.56;100874.03;5011823;28;96800;-81
2021/08/18 08:26:04;;;;;;;;;;;;;;;23.20;40.84;100878.66;5035887;27;96885;-80
2021/08/18 08:28:30;;;;;;;;;;;;;;;23.36;40.57;100875.50;5002675;28;97957;-81
2021/08/18 08:30:56;;;;;;;;;;;;;;;22.78;41.36;100872.38;4991990;28;97962;-81
2021/08/18 08:33:23;;;;;;;;;;;;;;;21.97;42.86;100874.66;5009030;28;97277;-81
2021/08/18 08:35:49;;;;;;;;;;;;;;;22.94;40.92;100867.41;4997684;28;97912;-82
2021/08/18 08:38:17;;;;;;;;;;;;;;;23.47;39.96;100879.94;5006714;28;97881;-81
2021/08/18 08:40:44;;;;;;;;;;;;;;;23.27;40.48;100884.38;5000421;28;96773;-80
2021/08/18 08:43:13;;;;;;;;;;;;;;;23.91;39.20;100882.28;5002033;28;96955;-80
2021/08/18 08:45:50;;;;;;;;;;;;;;;24.02;39.20;100882.22;5003246;28;97227;-81
2021/08/18 08:48:17;;;;;;;;;;;;;;;23.58;40.38;100877.19;5006508;28;98320;-81
2021/08/18 08:50:48;;;;;;;;;;;;;;;23.82;39.76;100875.03;5006157;28;97931;-81
2021/08/18 08:53:16;;;;;;;;;;;;;;;23.72;40.12;100880.38;4998570;28;96856;-81
2021/08/18 08:55:43;;;;;;;;;;;;;;;23.72;40.27;100885.78;5006765;28;96889;-80
2021/08/18 08:58:12;;;;;;;;;;;;;;;24.06;39.45;100872.84;5009886;28;99952;-82
2021/08/18 09:00:38;;;;;;;;;;;;;;;23.75;39.85;100873.88;5008651;28;101096;-84
2021/08/18 09:03:11;;;;;;;;;;;;;;;23.55;40.15;100872.06;5012462;28;97049;-84
2021/08/18 09:05:50;;;;;;;;;;;;;;;23.52;40.88;100862.41;5001664;28;97245;-84
2021/08/18 09:08:19;;;;;;;;;;;;;;;23.62;40.55;100862.44;5002840;28;98853;-82
2021/08/18 09:11:00;;;;;;;;;;;;;;;24.16;39.62;100865.59;5011023;28;98046;-83
2021/08/18 09:13:42;;;;;;;;;;;;;;;24.31;39.74;100860.69;5010498;28;96394;-83
2021/08/18 09:16:10;;;;;;;;;;;;;;;23.64;40.96;100868.53;5003256;28;97650;-84
2021/08/18 09:18:37;;;;;;;;;;;;;;;24.00;39.71;100868.00;5012957;28;98883;-83
2021/08/18 09:21:22;;;;;;;;;;;;;;;23.94;39.78;100881.19;5003395;28;97151;-82
2021/08/18 09:24:20;;;;;;;;;;;;;;;23.35;41.09;100876.47;4989936;28;97232;-82
2021/08/18 09:26:48;;;;;;;;;;;;;;;23.65;40.49;100864.88;5005784;28;97560;-82
2021/08/18 09:29:29;;;;;;;;;;;;;;;23.37;40.73;100853.75;4992889;28;98036;-82
2021/08/18 09:31:58;;;;;;;;;;;;;;;22.72;42.83;100850.44;4998653;28;100725;-82
2021/08/18 09:34:40;;;;;;;;;;;;;;;22.87;42.70;100857.28;4996004;28;97439;-82
2021/08/18 09:37:10;;;;;;;;;;;;;;;23.59;41.45;100851.91;4993148;28;97059;-82
2021/08/18 09:39:38;;;;;;;;;;;;;;;23.71;40.76;100848.13;5000122;28;97385;-82
2021/08/18 09:42:16;;;;;;;;;;;;;;;23.16;42.02;100858.34;4999440;28;97668;-81
2021/08/18 09:44:42;;;;;;;;;;;;;;;23.21;41.81;100855.25;5001285;28;97944;-83
2021/08/18 09:47:09;;;;;;;;;;;;;;;23.16;42.61;100852.94;5004133;28;96800;-84
2021/08/18 09:49:37;;;;;;;;;;;;;;;22.92;42.56;100850.50;4996613;28;97887;-83
2021/08/18 09:52:03;;;;;;;;;;;;;;;22.93;43.04;100844.13;4999967;28;100113;-84
2021/08/18 09:54:36;;;;;;;;;;;;;;;23.99;41.10;100846.53;4997921;28;97988;-83
2021/08/18 09:57:08;;;;;;;;;;;;;;;24.01;40.53;100845.41;5003332;28;97178;-82
2021/08/18 09:59:44;;;;;;;;;;;;;;;24.48;40.05;100842.97;5008700;28;101286;-82
2021/08/18 10:04:51;;;;;;;;;;;;;;;23.97;40.43;100835.00;4996074;28;96717;-82
2021/08/18 10:07:27;;;;;;;;;;;;;;;23.72;40.95;100830.97;5008510;28;97492;-84
2021/08/18 10:10:13;;;;;;;;;;;;;;;23.96;40.50;100836.84;5006365;28;97865;-78
2021/08/18 10:12:57;;;;;;;;;;;;;;;23.65;40.31;100835.19;4997657;28;97645;-80
2021/08/18 10:15:25;;;;;;;;;;;;;;;24.23;39.24;100825.44;4998688;28;98421;-82
2021/08/18 10:17:52;;;;;;;;;;;;;;;24.01;39.06;100825.66;4991178;28;97085;-82
2021/08/18 10:20:22;;;;;;;;;;;;;;;24.42;38.55;100832.69;4996276;28;97713;-82
2021/08/18 10:23:00;;;;;;;;;;;;;;;24.65;37.97;100823.34;4996911;28;99798;-81
2021/08/18 10:25:37;;;;;;;;;;;;;;;24.73;37.64;100828.88;5000342;28;97336;-82
2021/08/18 10:28:05;;;;;;;;;;;;;;;24.67;37.10;100821.34;5008283;28;96899;-81
2021/08/18 10:30:33;;;;;;;;;;;;;;;24.14;38.36;100813.63;5015593;28;96854;-83
2021/08/18 10:32:59;;;;;;;;;;;;;;;24.40;37.84;100821.19;5007871;28;98156;-82
2021/08/18 10:35:42;;;;;;;;;;;;;;;24.77;37.56;100821.31;5012169;28;96068;-81
2021/08/18 10:38:32;;;;;;;;;;;;;;;25.17;36.74;100813.88;5005500;28;96648;-78
2021/08/18 10:41:01;;;;;;;;;;;;;;;24.95;36.85;100811.50;5008552;28;100840;-81
2021/08/18 10:43:46;;;;;;;;;;;;;;;24.97;37.33;100818.50;5009677;28;98475;-83
2021/08/18 10:46:17;;;;;;;;;;;;;;;25.69;36.08;100812.44;5011968;28;96607;-82
2021/08/18 10:48:58;;;;;;;;;;;;;;;24.97;35.97;100807.69;5013132;28;96092;-83
2021/08/18 10:54:39;;;;;;;;;;;;;;;25.85;35.19;100806.38;5016241;28;98566;-81
2021/08/18 10:57:25;;;;;;;;;;;;;;;26.14;34.95;100808.91;5011020;28;96606;-81
2021/08/18 10:59:53;;;;;;;;;;;;;;;25.91;34.27;100800.38;5002241;28;96384;-83
2021/08/18 11:05:19;;;;;;;;;;;;;;;25.45;34.68;100806.69;4994005;28;98371;-81
2021/08/18 11:08:09;;;;;;;;;;;;;;;25.51;34.82;100813.34;5013693;28;96913;-79
2021/08/18 11:10:47;;;;;;;;;;;;;;;25.38;35.29;100813.69;5002527;28;95906;-82
2021/08/18 11:16:16;;;;;;;;;;;;;;;25.00;35.08;100810.09;4996449;28;96794;-84
2021/08/18 11:21:49;;;;;;;;;;;;;;;24.35;35.60;100801.88;4960499;28;97431;-85
2021/08/18 11:24:19;;;;;;;;;;;;;;;24.86;35.64;100802.41;5000383;28;100135;-83
2021/08/18 11:26:46;;;;;;;;;;;;;;;24.81;35.82;100803.84;5002114;28;97791;-83
2021/08/18 11:29:13;;;;;;;;;;;;;;;24.30;36.27;100793.31;4995485;28;96659;-83
2021/08/18 11:31:43;;;;;;;;;;;;;;;24.93;34.96;100802.72;5017618;28;96720;-84
2021/08/18 11:34:29;;;;;;;;;;;;;;;24.96;35.32;100805.97;4996499;28;98105;-84
2021/08/18 11:37:05;;;;;;;;;;;;;;;24.17;35.84;100807.06;5011927;28;99333;-83
2021/08/18 11:39:36;;;;;;;;;;;;;;;23.79;36.79;100805.13;5026198;28;96747;-81
2021/08/18 11:42:09;;;;;;;;;;;;;;;24.24;36.14;100805.53;5015303;28;96440;-81
2021/08/18 11:44:38;;;;;;;;;;;;;;;24.18;36.20;100801.53;5010752;28;97611;-81
2021/08/18 11:49:49;;;;;;;;;;;;;;;25.27;34.20;100801.19;5008822;28;96738;-84
2021/08/18 11:52:17;;;;;;;;;;;;;;;24.99;34.95;100808.41;5008090;28;96740;-84
2021/08/18 11:57:32;;;;;;;;;;;;;;;24.82;35.22;100808.22;4999571;28;98729;-83
2021/08/18 12:00:00;;;;;;;;;;;;;;;24.89;35.21;100803.94;4997888;28;96814;-83
2021/08/18 12:02:28;;;;;;;;;;;;;;;24.14;36.37;100808.22;5003530;28;98815;-80
2021/08/18 12:04:55;;;;;;;;;;;;;;;24.29;36.13;100805.97;4996115;28;99005;-79
2021/08/18 12:07:23;;;;;;;;;;;;;;;24.35;36.46;100801.88;4998121;28;98573;-80
2021/08/18 12:10:13;;;;;;;;;;;;;;;24.33;36.64;100811.97;4999578;28;97219;-79
2021/08/18 12:12:42;;;;;;;;;;;;;;;24.44;36.38;100807.25;5009203;28;96770;-83
2021/08/18 12:15:16;;;;;;;;;;;;;;;24.54;36.45;100818.09;5007008;28;100611;-82
2021/08/18 12:17:43;;;;;;;;;;;;;;;24.53;36.83;100810.97;5006848;28;100939;-84
2021/08/18 12:20:23;;;;;;;;;;;;;;;24.38;36.95;100801.56;5009551;28;97397;-81
2021/08/18 12:22:55;;;;;;;;;;;;;;;23.35;38.62;100795.59;4990850;28;97008;-80
2021/08/18 12:28:24;;;;;;;;;;;;;;;25.43;35.16;100805.97;5080653;22;96699;-81
2021/08/18 12:31:01;;;;;;;;;;;;;;;25.47;35.10;100817.38;4960696;28;97151;-84
2021/08/18 12:36:12;;;;;;;;;;;;;;;24.60;37.28;100798.59;4962672;28;98951;-81
2021/08/18 12:41:30;;;;;;;;;;;;;;;24.27;37.81;100805.28;4959790;28;97700;-80
2021/08/18 12:44:06;;;;;;;;;;;;;;;23.82;38.88;100813.84;4956320;28;98822;-87
2021/08/18 12:46:33;;;;;;;;;;;;;;;23.96;38.47;100817.97;4962097;28;100314;-82
2021/08/18 12:49:20;;;;;;;;;;;;;;;23.48;39.74;100814.25;4959308;28;99157;-80
2021/08/18 12:51:48;;;;;;;;;;;;;;;23.97;39.29;100816.97;4963998;28;97016;-81
2021/08/18 12:54:21;;;;;;;;;;;;;;;23.72;39.71;100803.97;4954989;28;97611;-78
2021/08/18 12:56:48;;;;;;;;;;;;;;;23.92;39.51;100811.13;4960249;28;102161;-81
2021/08/18 12:59:20;;;;;;;;;;;;;;;24.13;39.02;100816.44;4961497;28;99209;-79
2021/08/18 13:01:46;;;;;;;;;;;;;;;23.91;39.40;100814.81;4957177;28;96877;-81
2021/08/18 13:04:13;;;;;;;;;;;;;;;24.33;38.49;100815.50;4959605;28;96908;-81
2021/08/18 13:06:40;;;;;;;;;;;;;;;24.89;37.60;100818.34;4966386;28;98745;-82
2021/08/18 13:09:14;;;;;;;;;;;;;;;24.68;37.99;100809.53;4974220;28;98739;-83
2021/08/18 13:11:43;;;;;;;;;;;;;;;23.98;39.27;100815.97;4978794;28;96501;-78